createdAt,value
2022-10-16T00:01:14.884Z,85.15
2022-10-16T00:03:42.642Z,84.29
2022-10-16T00:06:10.600Z,85.28
2022-10-16T00:08:38.341Z,86.51
2022-10-16T00:11:06.879Z,86.25
2022-10-16T00:13:34.544Z,85.24
2022-10-16T00:16:03.102Z,84.14
2022-10-16T00:18:30.902Z,84.04
2022-10-16T00:21:03.031Z,83.79
2022-10-16T00:23:51.565Z,83.96
2022-10-16T00:26:18.987Z,83.58
2022-10-16T00:28:47.183Z,83.11
2022-10-16T00:31:15.305Z,83.36
2022-10-16T00:33:42.613Z,84.03
2022-10-16T00:36:11.900Z,84.58
2022-10-16T00:38:39.341Z,85.01
2022-10-16T00:41:07.505Z,85.26
2022-10-16T00:43:43.661Z,85.12
2022-10-16T00:46:13.615Z,85.37
2022-10-16T00:48:40.829Z,85.97
2022-10-16T00:51:08.495Z,86.02
2022-10-16T00:53:36.439Z,86.26
2022-10-16T00:56:04.261Z,86.48
2022-10-16T00:58:31.477Z,87.00
2022-10-16T01:00:58.659Z,87.15
2022-10-16T01:03:27.916Z,87.74
2022-10-16T01:06:04.637Z,88.08
2022-10-16T01:08:44.422Z,89.28
2022-10-16T01:11:37.672Z,89.54
2022-10-16T01:14:12.412Z,88.78
2022-10-16T01:16:44.353Z,88.30
2022-10-16T01:19:21.335Z,87.77
2022-10-16T01:21:50.298Z,87.77
2022-10-16T01:24:20.593Z,88.01
2022-10-16T01:27:06.521Z,89.00
2022-10-16T01:29:37.677Z,88.85
2022-10-16T01:32:16.970Z,88.27
2022-10-16T01:35:13.693Z,88.12
2022-10-16T01:37:45.178Z,87.95
2022-10-16T01:40:13.796Z,87.58
2022-10-16T01:42:47.584Z,87.18
2022-10-16T01:45:16.013Z,87.85
2022-10-16T01:47:44.788Z,87.83
2022-10-16T01:50:13.527Z,88.09
2022-10-16T01:52:43.061Z,87.78
2022-10-16T01:55:11.846Z,87.83
2022-10-16T01:57:40.850Z,87.88
2022-10-16T02:00:10.661Z,87.80
2022-10-16T02:02:41.929Z,87.37
2022-10-16T02:05:17.100Z,87.50
2022-10-16T02:07:45.477Z,88.12
2022-10-16T02:10:12.953Z,87.99
2022-10-16T02:12:43.095Z,88.27
2022-10-16T02:15:10.302Z,88.51
2022-10-16T02:17:37.516Z,88.48
2022-10-16T02:20:05.393Z,88.25
2022-10-16T02:22:37.300Z,88.08
2022-10-16T02:25:20.701Z,88.02
2022-10-16T02:27:53.899Z,88.18
2022-10-16T02:30:24.457Z,88.26
2022-10-16T02:32:53.432Z,88.26
2022-10-16T02:35:22.184Z,88.50
2022-10-16T02:37:50.320Z,88.14
2022-10-16T02:40:20.319Z,88.19
2022-10-16T02:42:51.469Z,88.33
2022-10-16T02:45:19.108Z,88.73
2022-10-16T02:47:46.409Z,88.64
2022-10-16T02:50:13.807Z,88.19
2022-10-16T02:52:40.983Z,88.96
2022-10-16T02:55:08.242Z,89.37
2022-10-16T02:57:36.411Z,89.04
2022-10-16T03:00:05.209Z,89.37
2022-10-16T03:02:32.374Z,89.85
2022-10-16T03:04:59.610Z,89.41
2022-10-16T03:07:26.955Z,89.36
2022-10-16T03:09:55.567Z,89.00
2022-10-16T03:12:23.245Z,88.81
2022-10-16T03:14:50.416Z,88.63
2022-10-16T03:17:17.905Z,88.69
2022-10-16T03:19:45.089Z,88.71
2022-10-16T03:22:12.297Z,88.14
2022-10-16T03:24:39.497Z,88.10
2022-10-16T03:27:06.922Z,89.26
2022-10-16T03:29:34.402Z,89.09
2022-10-16T03:32:01.764Z,89.06
2022-10-16T03:34:29.041Z,88.68
2022-10-16T03:36:56.626Z,88.48
2022-10-16T03:39:23.783Z,88.28
2022-10-16T03:41:50.943Z,88.51
2022-10-16T03:44:18.163Z,89.34
2022-10-16T03:46:45.372Z,88.65
2022-10-16T03:49:12.872Z,88.37
2022-10-16T03:51:40.137Z,88.14
2022-10-16T03:54:07.387Z,88.23
2022-10-16T03:56:34.563Z,88.79
2022-10-16T03:59:01.764Z,88.80
2022-10-16T04:01:28.953Z,90.04
2022-10-16T04:03:56.149Z,90.12
2022-10-16T04:06:23.369Z,89.78
2022-10-16T04:08:50.593Z,89.58
2022-10-16T04:11:17.714Z,90.81
2022-10-16T04:13:45.165Z,92.08
2022-10-16T04:16:12.319Z,92.17
2022-10-16T04:18:39.540Z,91.79
2022-10-16T04:21:07.054Z,91.22
2022-10-16T04:23:34.232Z,90.98
2022-10-16T04:26:01.496Z,92.33
2022-10-16T04:28:28.864Z,92.71
2022-10-16T04:30:56.252Z,92.10
2022-10-16T04:33:23.444Z,92.02
2022-10-16T04:35:56.789Z,91.40
2022-10-16T04:38:23.989Z,90.80
2022-10-16T04:40:51.437Z,90.73
2022-10-16T04:43:18.792Z,90.58
2022-10-16T04:45:46.068Z,90.21
2022-10-16T04:48:13.526Z,90.91
2022-10-16T04:50:40.713Z,90.42
2022-10-16T04:53:08.342Z,90.68
2022-10-16T04:55:35.794Z,91.69
2022-10-16T04:58:03.022Z,92.65
2022-10-16T05:00:30.244Z,92.70
2022-10-16T05:02:58.174Z,92.06
2022-10-16T05:05:25.482Z,91.98
2022-10-16T05:07:52.669Z,92.30
2022-10-16T05:10:19.971Z,91.51
2022-10-16T05:12:47.202Z,90.79
2022-10-16T05:15:14.437Z,90.58
2022-10-16T05:17:44.592Z,91.21
2022-10-16T05:20:12.771Z,91.76
2022-10-16T05:22:40.045Z,91.17
2022-10-16T05:25:07.418Z,90.68
2022-10-16T05:27:34.667Z,90.43
2022-10-16T05:30:01.843Z,91.83
2022-10-16T05:32:29.017Z,91.29
2022-10-16T05:34:56.257Z,91.43
2022-10-16T05:37:23.757Z,90.54
2022-10-16T05:39:51.166Z,89.58
2022-10-16T05:42:18.424Z,89.32
2022-10-16T05:44:46.713Z,89.93
2022-10-16T05:47:15.098Z,90.55
2022-10-16T05:49:42.378Z,90.10
2022-10-16T05:52:09.548Z,89.72
2022-10-16T05:54:36.714Z,90.94
2022-10-16T05:57:03.921Z,91.13
2022-10-16T05:59:31.086Z,90.62
2022-10-16T06:01:58.303Z,90.28
2022-10-16T06:04:25.428Z,90.44
2022-10-16T06:06:52.642Z,91.39
2022-10-16T06:09:19.822Z,90.60
2022-10-16T06:11:47.045Z,91.32
2022-10-16T06:14:14.339Z,91.59
2022-10-16T06:16:41.925Z,92.12
2022-10-16T06:19:10.303Z,92.59
2022-10-16T06:21:37.612Z,92.01
2022-10-16T06:24:05.265Z,90.92
2022-10-16T06:26:32.669Z,90.15
2022-10-16T06:29:00.443Z,89.63
2022-10-16T06:31:30.127Z,89.86
2022-10-16T06:33:57.962Z,89.73
2022-10-16T06:36:26.021Z,89.75
2022-10-16T06:38:53.336Z,89.22
2022-10-16T06:41:21.847Z,89.88
2022-10-16T06:43:49.461Z,90.28
2022-10-16T06:46:17.974Z,90.14
2022-10-16T06:48:45.193Z,89.31
2022-10-16T06:51:14.052Z,89.06
2022-10-16T06:54:01.463Z,89.35
2022-10-16T06:56:31.905Z,89.14
2022-10-16T06:58:59.815Z,88.87
2022-10-16T07:01:27.462Z,88.23
2022-10-16T07:03:54.661Z,87.72
2022-10-16T07:06:23.528Z,87.22
2022-10-16T07:08:50.859Z,86.79
2022-10-16T07:11:19.316Z,86.49
2022-10-16T07:13:50.950Z,86.40
2022-10-16T07:16:23.068Z,85.69
2022-10-16T07:18:55.042Z,85.99
2022-10-16T07:21:23.638Z,86.24
2022-10-16T07:23:51.630Z,88.11
2022-10-16T07:26:18.909Z,88.12
2022-10-16T07:28:46.120Z,87.10
2022-10-16T07:31:14.471Z,87.01
2022-10-16T07:33:44.080Z,86.52
2022-10-16T07:36:15.908Z,85.64
2022-10-16T07:38:44.015Z,86.26
2022-10-16T07:41:13.170Z,86.62
2022-10-16T07:43:40.746Z,86.18
2022-10-16T07:46:07.990Z,86.11
2022-10-16T07:48:35.770Z,86.13
2022-10-16T07:51:04.525Z,85.24
2022-10-16T07:53:32.403Z,85.57
2022-10-16T07:56:00.588Z,85.53
2022-10-16T07:58:28.891Z,85.17
2022-10-16T08:00:56.778Z,84.64
2022-10-16T08:03:24.343Z,84.64
2022-10-16T08:05:51.628Z,83.81
2022-10-16T08:08:19.363Z,83.45
2022-10-16T08:10:46.575Z,83.66
2022-10-16T08:13:16.238Z,85.29
2022-10-16T08:15:44.451Z,85.33
2022-10-16T08:18:12.854Z,83.67
2022-10-16T08:20:40.593Z,81.38
2022-10-16T08:23:08.116Z,78.37
2022-10-16T08:25:36.300Z,77.42
2022-10-16T08:28:11.509Z,75.12
2022-10-16T08:30:38.775Z,72.31
2022-10-16T08:33:06.987Z,73.75
2022-10-16T08:35:34.281Z,74.71
2022-10-16T08:38:03.642Z,73.57
2022-10-16T08:40:33.267Z,73.03
2022-10-16T08:43:03.601Z,73.02
2022-10-16T08:45:49.119Z,69.73
2022-10-16T08:48:35.652Z,68.68
2022-10-16T08:51:03.692Z,68.05
2022-10-16T08:53:42.900Z,68.35
2022-10-16T08:56:10.202Z,69.54
2022-10-16T08:58:37.331Z,69.25
2022-10-16T09:01:05.697Z,69.46
2022-10-16T09:03:58.972Z,69.67
2022-10-16T09:06:26.245Z,70.08
2022-10-16T09:09:05.279Z,70.04
2022-10-16T09:11:51.318Z,70.21
2022-10-16T09:14:26.663Z,69.49
2022-10-16T09:16:58.472Z,68.39
2022-10-16T09:19:29.093Z,68.43
2022-10-16T09:21:56.603Z,68.81
2022-10-16T09:24:27.143Z,68.56
2022-10-16T09:26:56.448Z,68.68
2022-10-16T09:29:26.321Z,68.16
2022-10-16T09:31:54.724Z,68.00
2022-10-16T09:34:28.675Z,66.75
2022-10-16T09:36:57.154Z,67.04
2022-10-16T09:39:24.305Z,66.72
2022-10-16T09:41:51.879Z,67.00
2022-10-16T09:44:19.097Z,67.08
2022-10-16T09:46:46.184Z,67.06
2022-10-16T09:49:21.910Z,67.30
2022-10-16T09:51:49.015Z,67.99
2022-10-16T09:54:20.431Z,68.01
2022-10-16T09:56:52.937Z,68.30
2022-10-16T09:59:21.264Z,67.52
2022-10-16T10:01:50.822Z,67.34
2022-10-16T10:04:22.060Z,67.07
2022-10-16T10:06:56.776Z,66.73
2022-10-16T10:09:23.836Z,66.67
2022-10-16T10:11:53.869Z,66.27
2022-10-16T10:14:25.627Z,66.15
2022-10-16T10:16:53.732Z,65.65
2022-10-16T10:19:27.959Z,65.24
2022-10-16T10:21:57.896Z,65.11
2022-10-16T10:24:25.014Z,65.43
2022-10-16T10:26:55.778Z,65.19
2022-10-16T10:29:41.751Z,65.27
2022-10-16T10:32:24.786Z,65.57
2022-10-16T10:34:57.423Z,65.38
2022-10-16T10:37:24.581Z,66.18
2022-10-16T10:39:59.257Z,66.35
2022-10-16T10:42:35.777Z,66.30
2022-10-16T10:45:29.419Z,66.52
2022-10-16T10:47:56.580Z,65.93
2022-10-16T10:50:26.753Z,66.83
2022-10-16T10:52:54.151Z,67.12
2022-10-16T10:55:37.911Z,67.57
2022-10-16T10:58:16.400Z,67.37
2022-10-16T11:00:43.505Z,67.44
2022-10-16T11:03:22.605Z,67.61
2022-10-16T11:06:10.014Z,66.97
2022-10-16T11:08:42.065Z,66.68
2022-10-16T11:11:15.033Z,66.49
2022-10-16T11:13:42.158Z,66.76
2022-10-16T11:16:17.577Z,66.63
2022-10-16T11:18:56.264Z,66.70
2022-10-16T11:21:28.831Z,66.96
2022-10-16T11:24:02.836Z,66.82
2022-10-16T11:26:33.990Z,66.79
2022-10-16T11:29:02.876Z,66.96
2022-10-16T11:31:35.813Z,66.24
2022-10-16T11:34:22.993Z,66.83
2022-10-16T11:36:54.364Z,67.25
2022-10-16T11:39:31.554Z,67.19
2022-10-16T11:42:22.003Z,66.90
2022-10-16T11:45:05.566Z,66.88
2022-10-16T11:48:00.805Z,67.08
2022-10-16T11:50:37.033Z,67.23
2022-10-16T11:53:22.603Z,66.60
2022-10-16T11:55:49.822Z,66.02
2022-10-16T11:58:29.498Z,65.68
2022-10-16T12:01:06.774Z,65.63
2022-10-16T12:03:56.779Z,65.73
2022-10-16T12:06:31.305Z,65.81
2022-10-16T12:09:00.444Z,66.31
2022-10-16T12:11:27.613Z,66.31
2022-10-16T12:14:12.771Z,65.27
2022-10-16T12:16:51.168Z,65.40
2022-10-16T12:19:18.732Z,65.40
2022-10-16T12:21:46.606Z,65.38
2022-10-16T12:24:29.439Z,66.10
2022-10-16T12:26:56.867Z,65.82
2022-10-16T12:29:35.250Z,65.97
2022-10-16T12:32:04.377Z,66.28
2022-10-16T12:34:43.304Z,66.46
2022-10-16T12:37:30.666Z,66.69
2022-10-16T12:39:58.287Z,66.58
2022-10-16T12:42:25.692Z,66.66
2022-10-16T12:44:53.611Z,66.54
2022-10-16T12:47:25.599Z,66.40
2022-10-16T12:49:54.489Z,66.14
2022-10-16T12:52:29.809Z,66.20
2022-10-16T12:55:01.601Z,66.00
2022-10-16T12:57:38.338Z,65.26
2022-10-16T13:00:09.444Z,64.69
2022-10-16T13:02:48.912Z,65.31
2022-10-16T13:05:16.057Z,65.92
2022-10-16T13:07:43.184Z,65.87
2022-10-16T13:10:25.802Z,65.38
2022-10-16T13:13:25.193Z,65.10
2022-10-16T13:16:04.290Z,65.47
2022-10-16T13:18:41.965Z,65.82
2022-10-16T13:21:32.032Z,65.67
2022-10-16T13:24:09.699Z,66.00
2022-10-16T13:26:44.090Z,66.03
2022-10-16T13:29:11.426Z,65.43
2022-10-16T13:31:39.367Z,65.48
2022-10-16T13:34:07.518Z,64.93
2022-10-16T13:36:45.510Z,64.68
2022-10-16T13:39:21.802Z,63.44
2022-10-16T13:42:08.957Z,63.71
2022-10-16T13:44:42.596Z,64.09
2022-10-16T13:47:22.430Z,64.09
2022-10-16T13:50:00.282Z,64.77
2022-10-16T13:52:27.691Z,64.91
2022-10-16T13:54:59.349Z,65.57
2022-10-16T13:57:29.420Z,65.77
2022-10-16T13:59:56.588Z,65.53
2022-10-16T14:02:23.818Z,65.36
2022-10-16T14:04:51.400Z,65.54
2022-10-16T14:07:22.819Z,64.66
2022-10-16T14:09:51.310Z,64.50
2022-10-16T14:12:18.525Z,64.64
2022-10-16T14:14:50.504Z,65.05
2022-10-16T14:17:23.740Z,65.13
2022-10-16T14:19:55.479Z,64.51
2022-10-16T14:22:35.177Z,63.94
2022-10-16T14:25:16.587Z,63.98
2022-10-16T14:27:43.965Z,64.22
2022-10-16T14:30:15.751Z,64.34
2022-10-16T14:32:53.320Z,64.02
2022-10-16T14:35:29.391Z,63.68
2022-10-16T14:37:57.668Z,64.11
2022-10-16T14:40:26.194Z,63.85
2022-10-16T14:42:53.781Z,63.72
2022-10-16T14:45:22.272Z,63.34
2022-10-16T14:47:59.735Z,62.46
2022-10-16T14:50:27.084Z,62.61
2022-10-16T14:52:54.290Z,63.01
2022-10-16T14:55:21.627Z,63.34
2022-10-16T14:57:48.953Z,63.24
2022-10-16T15:00:16.244Z,63.13
2022-10-16T15:02:43.931Z,62.36
2022-10-16T15:05:21.736Z,62.74
2022-10-16T15:07:50.144Z,62.60
2022-10-16T15:10:19.001Z,62.47
2022-10-16T15:12:46.577Z,62.70
2022-10-16T15:15:51.686Z,62.77
2022-10-16T15:18:21.436Z,63.07
2022-10-16T15:20:51.746Z,63.18
2022-10-16T15:23:20.349Z,63.28
2022-10-16T15:25:50.317Z,63.17
2022-10-16T15:28:18.320Z,63.46
2022-10-16T15:30:46.095Z,63.61
2022-10-16T15:33:16.429Z,63.73
2022-10-16T15:35:43.980Z,64.03
2022-10-16T15:38:14.797Z,63.97
2022-10-16T15:40:42.317Z,64.18
2022-10-16T15:43:10.024Z,64.72
2022-10-16T15:45:37.139Z,64.61
2022-10-16T15:48:04.645Z,64.84
2022-10-16T15:50:32.676Z,65.37
2022-10-16T15:52:59.865Z,65.66
2022-10-16T15:55:27.005Z,65.85
2022-10-16T15:57:54.141Z,65.92
2022-10-16T16:00:26.525Z,65.99
2022-10-16T16:02:54.529Z,66.00
2022-10-16T16:05:22.728Z,65.59
2022-10-16T16:07:50.120Z,65.62
2022-10-16T16:10:17.673Z,65.86
2022-10-16T16:12:52.500Z,66.01
2022-10-16T16:15:25.661Z,66.19
2022-10-16T16:20:31.570Z,66.65
2022-10-16T16:22:59.039Z,66.76
2022-10-16T16:25:26.224Z,66.88
2022-10-16T16:27:53.360Z,67.02
2022-10-16T16:30:23.737Z,66.90
2022-10-16T16:32:54.463Z,67.27
2022-10-16T16:35:21.595Z,67.56
2022-10-16T16:37:48.862Z,67.84
2022-10-16T16:40:16.118Z,68.01
2022-10-16T16:42:43.332Z,68.26
2022-10-16T16:45:10.573Z,68.42
2022-10-16T16:47:39.435Z,68.55
2022-10-16T16:50:07.959Z,68.75
2022-10-16T16:52:35.817Z,68.85
2022-10-16T16:55:03.367Z,69.23
2022-10-16T16:57:30.686Z,69.79
2022-10-16T16:59:58.073Z,70.01
2022-10-16T17:02:26.240Z,70.10
2022-10-16T17:04:53.397Z,70.11
2022-10-16T17:07:24.261Z,70.45
2022-10-16T17:09:51.626Z,70.72
2022-10-16T17:12:18.833Z,71.17
2022-10-16T17:14:45.980Z,71.04
2022-10-16T17:17:13.233Z,71.56
2022-10-16T17:19:40.380Z,71.95
2022-10-16T17:22:07.515Z,72.22
2022-10-16T17:24:34.765Z,72.34
2022-10-16T17:27:01.901Z,72.48
2022-10-16T17:29:29.119Z,72.56
2022-10-16T17:31:56.691Z,72.85
2022-10-16T17:34:23.853Z,73.05
2022-10-16T17:36:51.037Z,73.73
2022-10-16T17:39:18.968Z,73.82
2022-10-16T17:41:47.063Z,74.12
2022-10-16T17:44:19.932Z,74.99
2022-10-16T17:46:48.090Z,75.45
2022-10-16T17:49:15.748Z,76.03
2022-10-16T17:51:43.349Z,76.21
2022-10-16T17:54:11.711Z,75.97
2022-10-16T17:56:38.843Z,75.75
2022-10-16T17:59:06.671Z,75.95
2022-10-16T18:01:35.144Z,75.97
2022-10-16T18:04:02.309Z,76.31
2022-10-16T18:06:30.810Z,76.69
2022-10-16T18:08:58.699Z,76.88
2022-10-16T18:11:26.928Z,77.05
2022-10-16T18:13:55.099Z,77.40
2022-10-16T18:16:22.761Z,77.73
2022-10-16T18:18:50.359Z,77.77
2022-10-16T18:21:18.866Z,78.04
2022-10-16T18:23:50.915Z,78.47
2022-10-16T18:26:20.622Z,79.01
2022-10-16T18:28:47.899Z,79.26
2022-10-16T18:31:16.652Z,79.77
2022-10-16T18:33:53.913Z,80.05
2022-10-16T18:36:32.536Z,80.53
2022-10-16T18:39:00.366Z,81.33
2022-10-16T18:41:28.005Z,81.69
2022-10-16T18:43:56.275Z,82.33
2022-10-16T18:46:24.048Z,81.95
2022-10-16T18:48:52.007Z,81.98
2022-10-16T18:51:20.781Z,81.87
2022-10-16T18:53:51.072Z,81.43
2022-10-16T18:56:19.626Z,81.28
2022-10-16T18:58:48.576Z,81.42
2022-10-16T19:01:17.222Z,81.58
2022-10-16T19:03:44.375Z,81.74
2022-10-16T19:06:13.377Z,82.18
2022-10-16T19:08:41.396Z,82.41
2022-10-16T19:11:10.240Z,82.70
2022-10-16T19:13:37.760Z,82.62
2022-10-16T19:16:21.493Z,83.02
2022-10-16T19:18:52.166Z,82.92
2022-10-16T19:21:19.810Z,83.03
2022-10-16T19:23:50.873Z,82.99
2022-10-16T19:26:18.920Z,83.37
2022-10-16T19:28:46.648Z,82.88
2022-10-16T19:31:16.187Z,83.29
2022-10-16T19:33:43.826Z,83.67
2022-10-16T19:36:13.110Z,83.50
2022-10-16T19:38:41.262Z,83.28
2022-10-16T19:41:09.765Z,83.05
2022-10-16T19:43:37.292Z,82.94
2022-10-16T19:46:09.317Z,82.96
2022-10-16T19:48:37.337Z,83.11
2022-10-16T19:51:05.534Z,82.94
2022-10-16T19:53:33.217Z,83.16
2022-10-16T19:56:00.792Z,83.52
2022-10-16T19:58:28.235Z,83.59
2022-10-16T20:00:55.920Z,83.41
2022-10-16T20:03:23.173Z,83.58
2022-10-16T20:05:51.530Z,83.33
2022-10-16T20:08:18.731Z,84.28
2022-10-16T20:10:55.007Z,83.43
2022-10-16T20:13:22.275Z,83.43
2022-10-16T20:18:50.525Z,83.56
2022-10-16T20:21:18.781Z,83.00
2022-10-16T20:23:47.166Z,83.56
2022-10-16T20:26:14.580Z,84.04
2022-10-16T20:28:42.512Z,84.34
2022-10-16T20:31:12.061Z,84.67
2022-10-16T20:33:39.391Z,84.78
2022-10-16T20:36:10.254Z,85.02
2022-10-16T20:38:37.718Z,85.09
2022-10-16T20:41:05.602Z,85.55
2022-10-16T20:43:32.801Z,85.42
2022-10-16T20:46:01.079Z,85.66
2022-10-16T20:48:28.214Z,85.64
2022-10-16T20:50:55.304Z,86.01
2022-10-16T20:53:22.573Z,85.93
2022-10-16T20:55:49.739Z,85.88
2022-10-16T20:58:17.476Z,85.83
2022-10-16T21:00:44.916Z,85.87
2022-10-16T21:03:12.324Z,85.54
2022-10-16T21:05:42.591Z,86.14
2022-10-16T21:08:09.827Z,86.67
2022-10-16T21:10:36.936Z,86.50
2022-10-16T21:13:04.058Z,86.19
2022-10-16T21:15:31.197Z,85.99
2022-10-16T21:17:59.110Z,86.10
2022-10-16T21:20:26.209Z,86.89
2022-10-16T21:22:53.657Z,87.64
2022-10-16T21:25:20.882Z,88.25
2022-10-16T21:27:48.833Z,88.75
2022-10-16T21:30:16.065Z,88.67
2022-10-16T21:32:44.215Z,87.90
2022-10-16T21:35:11.523Z,88.20
2022-10-16T21:37:39.564Z,88.65
2022-10-16T21:40:07.091Z,88.77
2022-10-16T21:42:34.360Z,88.56
2022-10-16T21:45:01.587Z,88.44
2022-10-16T21:47:28.804Z,88.13
2022-10-16T21:49:55.969Z,88.01
2022-10-16T21:52:23.213Z,87.67
2022-10-16T21:54:50.411Z,88.50
2022-10-16T21:57:17.541Z,88.04
2022-10-16T21:59:44.676Z,88.06
2022-10-16T22:02:12.470Z,87.80
2022-10-16T22:04:39.645Z,87.39
2022-10-16T22:07:07.516Z,87.05
2022-10-16T22:09:34.704Z,87.37
2022-10-16T22:12:01.884Z,87.56
2022-10-16T22:14:29.048Z,87.82
2022-10-16T22:16:56.489Z,87.53
2022-10-16T22:19:23.698Z,87.73
2022-10-16T22:21:54.517Z,87.55
2022-10-16T22:24:21.745Z,87.22
2022-10-16T22:26:49.455Z,87.28
2022-10-16T22:29:17.272Z,87.38
2022-10-16T22:31:45.218Z,87.95
2022-10-16T22:34:13.861Z,88.21
2022-10-16T22:36:41.008Z,88.33
2022-10-16T22:39:09.926Z,89.29
2022-10-16T22:41:37.404Z,89.33
2022-10-16T22:44:04.688Z,89.53
2022-10-16T22:46:32.287Z,89.29
2022-10-16T22:48:59.463Z,89.50
2022-10-16T22:51:27.122Z,89.46
2022-10-16T22:53:54.587Z,89.55
2022-10-16T22:56:22.522Z,89.56
2022-10-16T22:58:49.907Z,89.85
2022-10-16T23:01:22.976Z,89.72
2022-10-16T23:03:50.226Z,89.96
2022-10-16T23:06:18.100Z,89.92
2022-10-16T23:08:45.238Z,90.17
2022-10-16T23:11:13.073Z,90.63
2022-10-16T23:13:45.104Z,91.03
2022-10-16T23:16:19.905Z,90.99
2022-10-16T23:18:47.812Z,90.55
2022-10-16T23:21:19.520Z,89.82
2022-10-16T23:23:47.102Z,89.95
2022-10-16T23:26:18.832Z,90.59
2022-10-16T23:28:46.114Z,90.74
2022-10-16T23:31:14.260Z,91.31
2022-10-16T23:33:41.593Z,91.78
2022-10-16T23:36:10.030Z,91.73
2022-10-16T23:38:37.560Z,91.86
2022-10-16T23:41:05.819Z,90.83
2022-10-16T23:43:33.052Z,89.96
2022-10-16T23:46:00.257Z,89.62
2022-10-16T23:48:27.508Z,89.41
2022-10-16T23:50:54.802Z,89.62
2022-10-16T23:53:22.055Z,89.59
2022-10-16T23:55:49.577Z,90.34
2022-10-16T23:58:16.833Z,90.45
